sensor_id;sensor_type;location;lat;lon;timestamp;P1;durP1;ratioP1;P2;durP2;ratioP2
80179;SDS011;69505;52.134;5.438;2024-01-27T00:01:08;9.63;;;3.30;;
80179;SDS011;69505;52.134;5.438;2024-01-27T00:03:34;7.75;;;3.20;;
80179;SDS011;69505;52.134;5.438;2024-01-27T00:06:01;6.03;;;3.38;;
80179;SDS011;69505;52.134;5.438;2024-01-27T00:08:28;12.30;;;3.53;;
80179;SDS011;69505;52.134;5.438;2024-01-27T00:10:55;14.18;;;3.17;;
80179;SDS011;69505;52.134;5.438;2024-01-27T00:13:22;11.25;;;3.40;;
80179;SDS011;69505;52.134;5.438;2024-01-27T00:15:48;9.75;;;2.38;;
80179;SDS011;69505;52.134;5.438;2024-01-27T00:18:15;10.23;;;3.17;;
80179;SDS011;69505;52.134;5.438;2024-01-27T00:20:42;9.07;;;2.25;;
80179;SDS011;69505;52.134;5.438;2024-01-27T00:23:09;12.88;;;3.28;;
80179;SDS011;69505;52.134;5.438;2024-01-27T00:25:36;15.65;;;3.17;;
80179;SDS011;69505;52.134;5.438;2024-01-27T00:28:02;11.05;;;3.72;;
80179;SDS011;69505;52.134;5.438;2024-01-27T00:30:29;9.88;;;3.50;;
80179;SDS011;69505;52.134;5.438;2024-01-27T00:32:56;7.07;;;3.50;;
80179;SDS011;69505;52.134;5.438;2024-01-27T00:35:23;8.77;;;3.28;;
80179;SDS011;69505;52.134;5.438;2024-01-27T00:37:49;7.18;;;2.80;;
80179;SDS011;69505;52.134;5.438;2024-01-27T00:40:16;8.20;;;2.30;;
80179;SDS011;69505;52.134;5.438;2024-01-27T00:42:42;10.25;;;2.85;;
80179;SDS011;69505;52.134;5.438;2024-01-27T00:45:09;7.28;;;2.85;;
80179;SDS011;69505;52.134;5.438;2024-01-27T00:47:35;11.90;;;1.90;;
80179;SDS011;69505;52.134;5.438;2024-01-27T00:50:02;7.20;;;3.30;;
80179;SDS011;69505;52.134;5.438;2024-01-27T00:52:29;11.73;;;3.20;;
80179;SDS011;69505;52.134;5.438;2024-01-27T00:54:56;10.50;;;3.00;;
80179;SDS011;69505;52.134;5.438;2024-01-27T00:57:22;8.60;;;3.00;;
80179;SDS011;69505;52.134;5.438;2024-01-27T00:59:49;11.57;;;1.80;;
80179;SDS011;69505;52.134;5.438;2024-01-27T01:02:15;10.90;;;3.33;;
80179;SDS011;69505;52.134;5.438;2024-01-27T01:04:42;9.32;;;2.95;;
80179;SDS011;69505;52.134;5.438;2024-01-27T01:07:09;7.80;;;3.25;;
80179;SDS011;69505;52.134;5.438;2024-01-27T01:09:36;8.70;;;2.95;;
80179;SDS011;69505;52.134;5.438;2024-01-27T01:12:03;16.00;;;3.50;;
80179;SDS011;69505;52.134;5.438;2024-01-27T01:14:29;9.90;;;2.90;;
80179;SDS011;69505;52.134;5.438;2024-01-27T01:16:56;8.73;;;3.17;;
80179;SDS011;69505;52.134;5.438;2024-01-27T01:19:23;7.53;;;2.92;;
80179;SDS011;69505;52.134;5.438;2024-01-27T01:21:49;5.82;;;2.60;;
80179;SDS011;69505;52.134;5.438;2024-01-27T01:24:16;6.47;;;2.92;;
80179;SDS011;69505;52.134;5.438;2024-01-27T01:26:43;9.82;;;2.70;;
80179;SDS011;69505;52.134;5.438;2024-01-27T01:29:09;11.13;;;3.88;;
80179;SDS011;69505;52.134;5.438;2024-01-27T01:31:36;5.05;;;2.75;;
80179;SDS011;69505;52.134;5.438;2024-01-27T01:34:02;6.95;;;3.17;;
80179;SDS011;69505;52.134;5.438;2024-01-27T01:36:29;5.63;;;2.50;;
80179;SDS011;69505;52.134;5.438;2024-01-27T01:38:56;9.13;;;3.30;;
80179;SDS011;69505;52.134;5.438;2024-01-27T01:41:22;7.90;;;2.97;;
80179;SDS011;69505;52.134;5.438;2024-01-27T01:43:49;7.20;;;2.90;;
80179;SDS011;69505;52.134;5.438;2024-01-27T01:46:16;12.98;;;3.08;;
80179;SDS011;69505;52.134;5.438;2024-01-27T01:48:42;7.30;;;2.78;;
80179;SDS011;69505;52.134;5.438;2024-01-27T01:51:09;8.63;;;2.70;;
80179;SDS011;69505;52.134;5.438;2024-01-27T01:53:36;6.70;;;2.53;;
80179;SDS011;69505;52.134;5.438;2024-01-27T01:56:03;7.97;;;2.85;;
80179;SDS011;69505;52.134;5.438;2024-01-27T01:58:30;9.63;;;2.85;;
80179;SDS011;69505;52.134;5.438;2024-01-27T02:01:00;10.50;;;2.78;;
80179;SDS011;69505;52.134;5.438;2024-01-27T02:03:27;7.20;;;2.70;;
80179;SDS011;69505;52.134;5.438;2024-01-27T02:05:55;8.45;;;2.53;;
80179;SDS011;69505;52.134;5.438;2024-01-27T02:08:22;6.78;;;2.83;;
80179;SDS011;69505;52.134;5.438;2024-01-27T02:10:49;9.40;;;3.60;;
80179;SDS011;69505;52.134;5.438;2024-01-27T02:13:16;6.00;;;3.10;;
80179;SDS011;69505;52.134;5.438;2024-01-27T02:15:44;8.55;;;2.30;;
80179;SDS011;69505;52.134;5.438;2024-01-27T02:18:12;7.18;;;3.30;;
80179;SDS011;69505;52.134;5.438;2024-01-27T02:20:39;7.72;;;1.92;;
80179;SDS011;69505;52.134;5.438;2024-01-27T02:23:06;10.05;;;2.95;;
80179;SDS011;69505;52.134;5.438;2024-01-27T02:25:33;9.55;;;2.63;;
80179;SDS011;69505;52.134;5.438;2024-01-27T02:28:00;7.00;;;2.53;;
80179;SDS011;69505;52.134;5.438;2024-01-27T02:30:29;8.05;;;2.63;;
80179;SDS011;69505;52.134;5.438;2024-01-27T02:32:56;12.88;;;2.60;;
80179;SDS011;69505;52.134;5.438;2024-01-27T02:35:24;9.20;;;2.78;;
80179;SDS011;69505;52.134;5.438;2024-01-27T02:37:51;8.20;;;2.97;;
80179;SDS011;69505;52.134;5.438;2024-01-27T02:40:18;10.32;;;3.05;;
80179;SDS011;69505;52.134;5.438;2024-01-27T02:42:44;9.20;;;2.45;;
80179;SDS011;69505;52.134;5.438;2024-01-27T02:45:11;7.30;;;2.42;;
80179;SDS011;69505;52.134;5.438;2024-01-27T02:47:38;7.78;;;2.63;;
80179;SDS011;69505;52.134;5.438;2024-01-27T02:50:05;5.88;;;2.78;;
80179;SDS011;69505;52.134;5.438;2024-01-27T02:52:32;5.25;;;2.35;;
80179;SDS011;69505;52.134;5.438;2024-01-27T02:54:59;5.82;;;2.50;;
80179;SDS011;69505;52.134;5.438;2024-01-27T02:57:26;7.30;;;2.63;;
80179;SDS011;69505;52.134;5.438;2024-01-27T02:59:53;13.05;;;2.97;;
80179;SDS011;69505;52.134;5.438;2024-01-27T03:02:20;10.70;;;2.85;;
80179;SDS011;69505;52.134;5.438;2024-01-27T03:04:46;10.55;;;2.47;;
80179;SDS011;69505;52.134;5.438;2024-01-27T03:07:13;9.80;;;3.10;;
80179;SDS011;69505;52.134;5.438;2024-01-27T03:09:39;8.93;;;2.45;;
80179;SDS011;69505;52.134;5.438;2024-01-27T03:12:06;5.03;;;2.53;;
80179;SDS011;69505;52.134;5.438;2024-01-27T03:14:34;13.57;;;2.60;;
80179;SDS011;69505;52.134;5.438;2024-01-27T03:17:00;4.50;;;2.45;;
80179;SDS011;69505;52.134;5.438;2024-01-27T03:19:27;8.48;;;2.33;;
80179;SDS011;69505;52.134;5.438;2024-01-27T03:21:54;6.45;;;2.58;;
80179;SDS011;69505;52.134;5.438;2024-01-27T03:24:20;6.90;;;2.42;;
80179;SDS011;69505;52.134;5.438;2024-01-27T03:26:47;6.15;;;2.80;;
80179;SDS011;69505;52.134;5.438;2024-01-27T03:29:14;8.02;;;3.20;;
80179;SDS011;69505;52.134;5.438;2024-01-27T03:31:41;6.75;;;2.28;;
80179;SDS011;69505;52.134;5.438;2024-01-27T03:34:07;8.60;;;3.10;;
80179;SDS011;69505;52.134;5.438;2024-01-27T03:36:34;9.55;;;2.40;;
80179;SDS011;69505;52.134;5.438;2024-01-27T03:39:01;9.40;;;3.20;;
80179;SDS011;69505;52.134;5.438;2024-01-27T03:41:28;7.05;;;2.90;;
80179;SDS011;69505;52.134;5.438;2024-01-27T03:43:55;5.72;;;2.85;;
80179;SDS011;69505;52.134;5.438;2024-01-27T03:46:21;9.32;;;2.97;;
80179;SDS011;69505;52.134;5.438;2024-01-27T03:48:48;10.05;;;2.85;;
80179;SDS011;69505;52.134;5.438;2024-01-27T03:51:14;18.40;;;3.67;;
80179;SDS011;69505;52.134;5.438;2024-01-27T03:53:41;6.07;;;2.70;;
80179;SDS011;69505;52.134;5.438;2024-01-27T03:56:11;7.68;;;3.70;;
80179;SDS011;69505;52.134;5.438;2024-01-27T03:58:38;11.02;;;3.33;;
80179;SDS011;69505;52.134;5.438;2024-01-27T04:01:05;6.70;;;3.22;;
80179;SDS011;69505;52.134;5.438;2024-01-27T04:03:31;10.85;;;3.63;;
80179;SDS011;69505;52.134;5.438;2024-01-27T04:05:58;13.10;;;2.83;;
80179;SDS011;69505;52.134;5.438;2024-01-27T04:08:25;11.05;;;4.07;;
80179;SDS011;69505;52.134;5.438;2024-01-27T04:10:52;6.97;;;4.10;;
80179;SDS011;69505;52.134;5.438;2024-01-27T04:13:18;6.25;;;4.03;;
80179;SDS011;69505;52.134;5.438;2024-01-27T04:15:45;7.40;;;2.97;;
80179;SDS011;69505;52.134;5.438;2024-01-27T04:18:11;11.77;;;4.22;;
80179;SDS011;69505;52.134;5.438;2024-01-27T04:20:38;8.98;;;3.65;;
80179;SDS011;69505;52.134;5.438;2024-01-27T04:23:05;10.20;;;3.90;;
80179;SDS011;69505;52.134;5.438;2024-01-27T04:25:32;11.02;;;3.50;;
80179;SDS011;69505;52.134;5.438;2024-01-27T04:27:59;9.02;;;4.55;;
80179;SDS011;69505;52.134;5.438;2024-01-27T04:30:25;8.68;;;4.38;;
80179;SDS011;69505;52.134;5.438;2024-01-27T04:32:52;9.32;;;4.20;;
80179;SDS011;69505;52.134;5.438;2024-01-27T04:35:19;13.18;;;4.18;;
80179;SDS011;69505;52.134;5.438;2024-01-27T04:37:45;10.88;;;4.88;;
80179;SDS011;69505;52.134;5.438;2024-01-27T04:40:12;7.53;;;4.18;;
80179;SDS011;69505;52.134;5.438;2024-01-27T04:42:38;8.25;;;3.88;;
80179;SDS011;69505;52.134;5.438;2024-01-27T04:45:07;12.77;;;4.47;;
80179;SDS011;69505;52.134;5.438;2024-01-27T04:47:34;9.25;;;2.72;;
80179;SDS011;69505;52.134;5.438;2024-01-27T04:50:01;7.95;;;4.75;;
80179;SDS011;69505;52.134;5.438;2024-01-27T04:52:27;12.02;;;4.47;;
80179;SDS011;69505;52.134;5.438;2024-01-27T04:54:54;9.00;;;3.85;;
80179;SDS011;69505;52.134;5.438;2024-01-27T04:57:20;7.22;;;4.05;;
80179;SDS011;69505;52.134;5.438;2024-01-27T04:59:47;14.52;;;4.47;;
80179;SDS011;69505;52.134;5.438;2024-01-27T05:02:14;9.73;;;4.43;;
80179;SDS011;69505;52.134;5.438;2024-01-27T05:04:41;9.23;;;3.85;;
80179;SDS011;69505;52.134;5.438;2024-01-27T05:07:08;9.57;;;4.88;;
80179;SDS011;69505;52.134;5.438;2024-01-27T05:09:34;9.30;;;4.13;;
80179;SDS011;69505;52.134;5.438;2024-01-27T05:12:02;5.22;;;3.80;;
80179;SDS011;69505;52.134;5.438;2024-01-27T05:14:29;12.65;;;3.60;;
80179;SDS011;69505;52.134;5.438;2024-01-27T05:16:55;11.57;;;3.47;;
80179;SDS011;69505;52.134;5.438;2024-01-27T05:19:22;9.55;;;5.32;;
80179;SDS011;69505;52.134;5.438;2024-01-27T05:21:49;13.38;;;5.47;;
80179;SDS011;69505;52.134;5.438;2024-01-27T05:24:15;16.27;;;3.80;;
80179;SDS011;69505;52.134;5.438;2024-01-27T05:26:42;14.23;;;4.95;;
80179;SDS011;69505;52.134;5.438;2024-01-27T05:29:09;11.07;;;4.95;;
80179;SDS011;69505;52.134;5.438;2024-01-27T05:31:35;9.90;;;4.72;;
80179;SDS011;69505;52.134;5.438;2024-01-27T05:34:02;11.98;;;4.75;;
80179;SDS011;69505;52.134;5.438;2024-01-27T05:36:29;9.07;;;5.32;;
80179;SDS011;69505;52.134;5.438;2024-01-27T05:38:56;10.25;;;5.50;;
80179;SDS011;69505;52.134;5.438;2024-01-27T05:41:25;13.52;;;4.78;;
80179;SDS011;69505;52.134;5.438;2024-01-27T05:43:53;12.80;;;4.88;;
80179;SDS011;69505;52.134;5.438;2024-01-27T05:46:19;12.65;;;5.32;;
80179;SDS011;69505;52.134;5.438;2024-01-27T05:48:46;10.48;;;5.15;;
80179;SDS011;69505;52.134;5.438;2024-01-27T05:51:13;10.65;;;4.88;;
80179;SDS011;69505;52.134;5.438;2024-01-27T05:53:39;9.48;;;4.88;;
80179;SDS011;69505;52.134;5.438;2024-01-27T05:56:06;18.35;;;6.03;;
80179;SDS011;69505;52.134;5.438;2024-01-27T05:58:32;8.45;;;5.45;;
80179;SDS011;69505;52.134;5.438;2024-01-27T06:00:59;11.05;;;5.28;;
80179;SDS011;69505;52.134;5.438;2024-01-27T06:03:26;15.48;;;5.25;;
80179;SDS011;69505;52.134;5.438;2024-01-27T06:05:52;9.30;;;5.13;;
80179;SDS011;69505;52.134;5.438;2024-01-27T06:08:19;13.63;;;6.18;;
80179;SDS011;69505;52.134;5.438;2024-01-27T06:10:46;9.93;;;5.35;;
80179;SDS011;69505;52.134;5.438;2024-01-27T06:13:13;10.45;;;5.45;;
80179;SDS011;69505;52.134;5.438;2024-01-27T06:15:40;9.48;;;5.18;;
80179;SDS011;69505;52.134;5.438;2024-01-27T06:18:06;14.27;;;6.60;;
80179;SDS011;69505;52.134;5.438;2024-01-27T06:20:33;11.52;;;5.65;;
80179;SDS011;69505;52.134;5.438;2024-01-27T06:23:00;14.57;;;5.88;;
80179;SDS011;69505;52.134;5.438;2024-01-27T06:25:26;14.48;;;5.72;;
80179;SDS011;69505;52.134;5.438;2024-01-27T06:27:54;15.82;;;5.65;;
80179;SDS011;69505;52.134;5.438;2024-01-27T06:30:20;16.73;;;6.32;;
80179;SDS011;69505;52.134;5.438;2024-01-27T06:32:47;11.82;;;5.47;;
80179;SDS011;69505;52.134;5.438;2024-01-27T06:35:14;15.00;;;7.13;;
80179;SDS011;69505;52.134;5.438;2024-01-27T06:37:41;12.90;;;5.28;;
80179;SDS011;69505;52.134;5.438;2024-01-27T06:40:08;15.85;;;6.38;;
80179;SDS011;69505;52.134;5.438;2024-01-27T06:42:37;10.50;;;4.90;;
80179;SDS011;69505;52.134;5.438;2024-01-27T06:45:04;12.65;;;6.90;;
80179;SDS011;69505;52.134;5.438;2024-01-27T06:47:31;12.85;;;5.70;;
80179;SDS011;69505;52.134;5.438;2024-01-27T06:49:58;16.35;;;6.13;;
80179;SDS011;69505;52.134;5.438;2024-01-27T06:52:25;10.73;;;6.40;;
80179;SDS011;69505;52.134;5.438;2024-01-27T06:54:52;8.88;;;5.45;;
80179;SDS011;69505;52.134;5.438;2024-01-27T06:59:50;10.52;;;6.15;;
80179;SDS011;69505;52.134;5.438;2024-01-27T07:02:22;9.65;;;6.00;;
80179;SDS011;69505;52.134;5.438;2024-01-27T07:04:50;9.65;;;5.88;;
80179;SDS011;69505;52.134;5.438;2024-01-27T07:07:16;7.22;;;6.00;;
80179;SDS011;69505;52.134;5.438;2024-01-27T07:09:43;9.32;;;5.47;;
80179;SDS011;69505;52.134;5.438;2024-01-27T07:12:10;11.98;;;5.70;;
80179;SDS011;69505;52.134;5.438;2024-01-27T07:14:37;9.23;;;6.35;;
80179;SDS011;69505;52.134;5.438;2024-01-27T07:17:03;10.23;;;6.32;;
80179;SDS011;69505;52.134;5.438;2024-01-27T07:19:31;11.50;;;4.95;;
80179;SDS011;69505;52.134;5.438;2024-01-27T07:21:58;11.82;;;6.57;;
80179;SDS011;69505;52.134;5.438;2024-01-27T07:24:30;8.75;;;6.35;;
80179;SDS011;69505;52.134;5.438;2024-01-27T07:26:57;13.38;;;5.80;;
80179;SDS011;69505;52.134;5.438;2024-01-27T07:29:24;9.75;;;5.43;;
80179;SDS011;69505;52.134;5.438;2024-01-27T07:31:51;10.65;;;6.30;;
80179;SDS011;69505;52.134;5.438;2024-01-27T07:34:17;9.00;;;5.78;;
80179;SDS011;69505;52.134;5.438;2024-01-27T07:36:44;11.73;;;6.60;;
80179;SDS011;69505;52.134;5.438;2024-01-27T07:39:11;13.70;;;4.40;;
80179;SDS011;69505;52.134;5.438;2024-01-27T07:41:37;13.55;;;5.85;;
80179;SDS011;69505;52.134;5.438;2024-01-27T07:44:11;16.17;;;5.97;;
80179;SDS011;69505;52.134;5.438;2024-01-27T07:46:41;10.20;;;6.20;;
80179;SDS011;69505;52.134;5.438;2024-01-27T07:49:08;13.80;;;6.55;;
80179;SDS011;69505;52.134;5.438;2024-01-27T07:51:35;18.35;;;6.35;;
80179;SDS011;69505;52.134;5.438;2024-01-27T07:54:02;10.90;;;6.28;;
80179;SDS011;69505;52.134;5.438;2024-01-27T07:56:29;12.77;;;5.88;;
80179;SDS011;69505;52.134;5.438;2024-01-27T07:58:55;12.45;;;5.95;;
80179;SDS011;69505;52.134;5.438;2024-01-27T08:01:22;12.52;;;6.22;;
80179;SDS011;69505;52.134;5.438;2024-01-27T08:03:49;11.60;;;6.38;;
80179;SDS011;69505;52.134;5.438;2024-01-27T08:06:17;10.23;;;5.90;;
80179;SDS011;69505;52.134;5.438;2024-01-27T08:08:45;10.02;;;6.00;;
80179;SDS011;69505;52.134;5.438;2024-01-27T08:11:16;14.15;;;6.57;;
80179;SDS011;69505;52.134;5.438;2024-01-27T08:13:47;9.50;;;4.68;;
80179;SDS011;69505;52.134;5.438;2024-01-27T08:16:14;11.95;;;5.57;;
80179;SDS011;69505;52.134;5.438;2024-01-27T08:18:41;9.90;;;5.47;;
80179;SDS011;69505;52.134;5.438;2024-01-27T08:21:10;12.30;;;5.80;;
80179;SDS011;69505;52.134;5.438;2024-01-27T08:23:40;9.70;;;4.80;;
80179;SDS011;69505;52.134;5.438;2024-01-27T08:26:07;10.18;;;5.97;;
80179;SDS011;69505;52.134;5.438;2024-01-27T08:28:34;12.52;;;5.55;;
80179;SDS011;69505;52.134;5.438;2024-01-27T08:31:00;16.30;;;7.03;;
80179;SDS011;69505;52.134;5.438;2024-01-27T08:33:28;11.18;;;5.97;;
80179;SDS011;69505;52.134;5.438;2024-01-27T08:35:55;8.68;;;6.05;;
80179;SDS011;69505;52.134;5.438;2024-01-27T08:38:22;9.52;;;5.93;;
80179;SDS011;69505;52.134;5.438;2024-01-27T08:40:49;10.60;;;5.55;;
80179;SDS011;69505;52.134;5.438;2024-01-27T08:43:15;11.63;;;6.50;;
80179;SDS011;69505;52.134;5.438;2024-01-27T08:45:42;12.60;;;6.00;;
80179;SDS011;69505;52.134;5.438;2024-01-27T08:48:09;9.93;;;6.05;;
80179;SDS011;69505;52.134;5.438;2024-01-27T08:50:38;11.43;;;4.35;;
80179;SDS011;69505;52.134;5.438;2024-01-27T08:53:05;13.98;;;4.38;;
80179;SDS011;69505;52.134;5.438;2024-01-27T08:55:31;11.27;;;5.95;;
80179;SDS011;69505;52.134;5.438;2024-01-27T08:57:58;15.73;;;5.82;;
80179;SDS011;69505;52.134;5.438;2024-01-27T09:00:25;14.30;;;6.03;;
80179;SDS011;69505;52.134;5.438;2024-01-27T09:02:52;13.80;;;6.38;;
80179;SDS011;69505;52.134;5.438;2024-01-27T09:05:19;9.50;;;5.72;;
80179;SDS011;69505;52.134;5.438;2024-01-27T09:07:46;14.60;;;6.45;;
80179;SDS011;69505;52.134;5.438;2024-01-27T09:10:12;10.07;;;6.38;;
80179;SDS011;69505;52.134;5.438;2024-01-27T09:12:42;13.55;;;6.25;;
80179;SDS011;69505;52.134;5.438;2024-01-27T09:17:38;14.35;;;5.88;;
80179;SDS011;69505;52.134;5.438;2024-01-27T09:20:04;14.38;;;6.20;;
80179;SDS011;69505;52.134;5.438;2024-01-27T09:22:32;13.35;;;7.78;;
80179;SDS011;69505;52.134;5.438;2024-01-27T09:24:59;17.98;;;6.18;;
80179;SDS011;69505;52.134;5.438;2024-01-27T09:27:26;15.02;;;7.32;;
80179;SDS011;69505;52.134;5.438;2024-01-27T09:29:53;12.10;;;6.90;;
80179;SDS011;69505;52.134;5.438;2024-01-27T09:32:19;14.88;;;6.72;;
80179;SDS011;69505;52.134;5.438;2024-01-27T09:34:46;13.60;;;6.80;;
80179;SDS011;69505;52.134;5.438;2024-01-27T09:37:13;14.10;;;6.38;;
80179;SDS011;69505;52.134;5.438;2024-01-27T09:39:39;12.15;;;6.03;;
80179;SDS011;69505;52.134;5.438;2024-01-27T09:42:06;15.27;;;6.78;;
80179;SDS011;69505;52.134;5.438;2024-01-27T09:44:34;10.52;;;5.82;;
80179;SDS011;69505;52.134;5.438;2024-01-27T09:47:02;16.45;;;7.13;;
80179;SDS011;69505;52.134;5.438;2024-01-27T09:49:30;11.52;;;6.25;;
80179;SDS011;69505;52.134;5.438;2024-01-27T09:51:58;17.65;;;6.53;;
80179;SDS011;69505;52.134;5.438;2024-01-27T09:54:25;9.02;;;5.65;;
80179;SDS011;69505;52.134;5.438;2024-01-27T09:56:52;10.93;;;5.45;;
80179;SDS011;69505;52.134;5.438;2024-01-27T09:59:20;12.90;;;5.60;;
80179;SDS011;69505;52.134;5.438;2024-01-27T10:01:47;14.50;;;6.15;;
80179;SDS011;69505;52.134;5.438;2024-01-27T10:04:15;12.80;;;5.40;;
80179;SDS011;69505;52.134;5.438;2024-01-27T10:06:42;16.15;;;5.93;;
80179;SDS011;69505;52.134;5.438;2024-01-27T10:09:09;14.48;;;6.15;;
80179;SDS011;69505;52.134;5.438;2024-01-27T10:11:36;16.77;;;5.43;;
80179;SDS011;69505;52.134;5.438;2024-01-27T10:14:06;14.98;;;6.15;;
80179;SDS011;69505;52.134;5.438;2024-01-27T10:16:42;13.23;;;5.22;;
80179;SDS011;69505;52.134;5.438;2024-01-27T10:19:17;10.63;;;6.40;;
80179;SDS011;69505;52.134;5.438;2024-01-27T10:21:45;12.70;;;4.70;;
80179;SDS011;69505;52.134;5.438;2024-01-27T10:24:13;12.40;;;5.47;;
80179;SDS011;69505;52.134;5.438;2024-01-27T10:26:40;14.77;;;5.10;;
80179;SDS011;69505;52.134;5.438;2024-01-27T10:29:06;11.25;;;5.47;;
80179;SDS011;69505;52.134;5.438;2024-01-27T10:31:35;13.60;;;5.25;;
80179;SDS011;69505;52.134;5.438;2024-01-27T10:34:02;12.90;;;5.35;;
80179;SDS011;69505;52.134;5.438;2024-01-27T10:36:38;14.18;;;6.32;;
80179;SDS011;69505;52.134;5.438;2024-01-27T10:39:22;10.85;;;5.38;;
80179;SDS011;69505;52.134;5.438;2024-01-27T10:41:50;15.57;;;5.90;;
80179;SDS011;69505;52.134;5.438;2024-01-27T10:44:18;11.35;;;5.07;;
80179;SDS011;69505;52.134;5.438;2024-01-27T10:46:46;10.85;;;5.50;;
80179;SDS011;69505;52.134;5.438;2024-01-27T10:49:15;14.65;;;5.90;;
80179;SDS011;69505;52.134;5.438;2024-01-27T10:51:45;15.80;;;5.72;;
80179;SDS011;69505;52.134;5.438;2024-01-27T10:54:14;11.52;;;3.95;;
80179;SDS011;69505;52.134;5.438;2024-01-27T10:56:44;12.88;;;5.28;;
80179;SDS011;69505;52.134;5.438;2024-01-27T10:59:12;10.70;;;5.25;;
80179;SDS011;69505;52.134;5.438;2024-01-27T11:01:41;12.32;;;5.38;;
80179;SDS011;69505;52.134;5.438;2024-01-27T11:04:10;14.10;;;3.72;;
80179;SDS011;69505;52.134;5.438;2024-01-27T11:06:37;13.88;;;4.93;;
80179;SDS011;69505;52.134;5.438;2024-01-27T11:09:05;10.32;;;4.90;;
80179;SDS011;69505;52.134;5.438;2024-01-27T11:11:34;13.75;;;5.35;;
80179;SDS011;69505;52.134;5.438;2024-01-27T11:14:02;13.05;;;5.30;;
80179;SDS011;69505;52.134;5.438;2024-01-27T11:16:29;8.63;;;3.45;;
80179;SDS011;69505;52.134;5.438;2024-01-27T11:18:55;10.80;;;4.68;;
80179;SDS011;69505;52.134;5.438;2024-01-27T11:21:23;8.32;;;4.53;;
80179;SDS011;69505;52.134;5.438;2024-01-27T11:23:49;11.18;;;4.70;;
80179;SDS011;69505;52.134;5.438;2024-01-27T11:26:20;12.40;;;4.95;;
80179;SDS011;69505;52.134;5.438;2024-01-27T11:28:49;12.38;;;4.45;;
80179;SDS011;69505;52.134;5.438;2024-01-27T11:31:19;8.05;;;4.95;;
80179;SDS011;69505;52.134;5.438;2024-01-27T11:33:47;11.48;;;5.18;;
80179;SDS011;69505;52.134;5.438;2024-01-27T11:36:22;10.32;;;4.45;;
80179;SDS011;69505;52.134;5.438;2024-01-27T11:38:51;11.82;;;4.18;;
80179;SDS011;69505;52.134;5.438;2024-01-27T11:41:28;9.35;;;4.22;;
80179;SDS011;69505;52.134;5.438;2024-01-27T11:43:57;9.35;;;4.03;;
80179;SDS011;69505;52.134;5.438;2024-01-27T11:46:25;9.02;;;3.65;;
80179;SDS011;69505;52.134;5.438;2024-01-27T11:48:53;10.80;;;4.35;;
80179;SDS011;69505;52.134;5.438;2024-01-27T11:51:20;10.18;;;4.65;;
80179;SDS011;69505;52.134;5.438;2024-01-27T11:53:49;12.98;;;4.30;;
80179;SDS011;69505;52.134;5.438;2024-01-27T11:56:16;9.95;;;4.57;;
80179;SDS011;69505;52.134;5.438;2024-01-27T11:58:47;7.85;;;3.13;;
80179;SDS011;69505;52.134;5.438;2024-01-27T12:01:15;16.63;;;4.75;;
80179;SDS011;69505;52.134;5.438;2024-01-27T12:03:42;11.40;;;4.22;;
80179;SDS011;69505;52.134;5.438;2024-01-27T12:06:11;11.35;;;3.17;;
80179;SDS011;69505;52.134;5.438;2024-01-27T12:08:43;16.42;;;4.97;;
80179;SDS011;69505;52.134;5.438;2024-01-27T12:11:14;12.10;;;4.10;;
80179;SDS011;69505;52.134;5.438;2024-01-27T12:13:44;9.80;;;3.83;;
80179;SDS011;69505;52.134;5.438;2024-01-27T12:16:10;8.70;;;3.60;;
80179;SDS011;69505;52.134;5.438;2024-01-27T12:18:37;10.70;;;3.95;;
80179;SDS011;69505;52.134;5.438;2024-01-27T12:21:04;12.52;;;4.93;;
80179;SDS011;69505;52.134;5.438;2024-01-27T12:23:30;9.57;;;4.53;;
80179;SDS011;69505;52.134;5.438;2024-01-27T12:25:57;14.98;;;4.00;;
80179;SDS011;69505;52.134;5.438;2024-01-27T12:28:24;11.05;;;3.95;;
80179;SDS011;69505;52.134;5.438;2024-01-27T12:30:51;13.40;;;3.72;;
80179;SDS011;69505;52.134;5.438;2024-01-27T12:33:19;16.00;;;3.95;;
80179;SDS011;69505;52.134;5.438;2024-01-27T12:35:51;9.85;;;4.05;;
80179;SDS011;69505;52.134;5.438;2024-01-27T12:38:18;10.82;;;3.78;;
80179;SDS011;69505;52.134;5.438;2024-01-27T12:40:45;9.25;;;3.92;;
80179;SDS011;69505;52.134;5.438;2024-01-27T12:43:11;11.00;;;4.05;;
80179;SDS011;69505;52.134;5.438;2024-01-27T12:45:38;11.50;;;4.22;;
80179;SDS011;69505;52.134;5.438;2024-01-27T12:48:05;5.93;;;3.10;;
80179;SDS011;69505;52.134;5.438;2024-01-27T12:50:32;10.20;;;2.65;;
80179;SDS011;69505;52.134;5.438;2024-01-27T12:53:00;7.57;;;3.60;;
80179;SDS011;69505;52.134;5.438;2024-01-27T12:55:26;9.85;;;3.22;;
80179;SDS011;69505;52.134;5.438;2024-01-27T12:57:53;7.45;;;3.05;;
80179;SDS011;69505;52.134;5.438;2024-01-27T13:00:19;12.88;;;4.15;;
80179;SDS011;69505;52.134;5.438;2024-01-27T13:02:46;9.73;;;4.25;;
80179;SDS011;69505;52.134;5.438;2024-01-27T13:05:13;14.25;;;4.20;;
80179;SDS011;69505;52.134;5.438;2024-01-27T13:07:39;8.55;;;2.45;;
80179;SDS011;69505;52.134;5.438;2024-01-27T13:10:06;8.57;;;3.78;;
80179;SDS011;69505;52.134;5.438;2024-01-27T13:12:33;8.88;;;3.72;;
80179;SDS011;69505;52.134;5.438;2024-01-27T13:15:01;10.52;;;3.55;;
80179;SDS011;69505;52.134;5.438;2024-01-27T13:17:28;10.57;;;3.50;;
80179;SDS011;69505;52.134;5.438;2024-01-27T13:19:55;8.52;;;3.03;;
80179;SDS011;69505;52.134;5.438;2024-01-27T13:22:21;8.15;;;3.92;;
80179;SDS011;69505;52.134;5.438;2024-01-27T13:24:51;10.35;;;3.88;;
80179;SDS011;69505;52.134;5.438;2024-01-27T13:27:17;7.60;;;3.55;;
80179;SDS011;69505;52.134;5.438;2024-01-27T13:29:44;11.27;;;3.17;;
80179;SDS011;69505;52.134;5.438;2024-01-27T13:32:11;11.52;;;3.53;;
80179;SDS011;69505;52.134;5.438;2024-01-27T13:34:38;10.35;;;3.25;;
80179;SDS011;69505;52.134;5.438;2024-01-27T13:37:05;10.55;;;3.25;;
80179;SDS011;69505;52.134;5.438;2024-01-27T13:39:31;9.55;;;2.63;;
80179;SDS011;69505;52.134;5.438;2024-01-27T13:41:58;8.20;;;3.30;;
80179;SDS011;69505;52.134;5.438;2024-01-27T13:44:26;14.02;;;3.92;;
80179;SDS011;69505;52.134;5.438;2024-01-27T13:46:53;11.15;;;3.33;;
80179;SDS011;69505;52.134;5.438;2024-01-27T13:49:20;9.95;;;3.50;;
80179;SDS011;69505;52.134;5.438;2024-01-27T13:51:47;10.00;;;3.83;;
80179;SDS011;69505;52.134;5.438;2024-01-27T13:54:14;11.93;;;3.80;;
80179;SDS011;69505;52.134;5.438;2024-01-27T13:56:41;8.52;;;2.50;;
80179;SDS011;69505;52.134;5.438;2024-01-27T13:59:07;11.02;;;3.85;;
80179;SDS011;69505;52.134;5.438;2024-01-27T14:01:34;16.60;;;3.63;;
80179;SDS011;69505;52.134;5.438;2024-01-27T14:04:01;10.93;;;4.10;;
80179;SDS011;69505;52.134;5.438;2024-01-27T14:06:28;8.77;;;3.80;;
80179;SDS011;69505;52.134;5.438;2024-01-27T14:08:55;11.07;;;3.88;;
80179;SDS011;69505;52.134;5.438;2024-01-27T14:11:22;10.02;;;4.25;;
80179;SDS011;69505;52.134;5.438;2024-01-27T14:13:48;12.48;;;4.72;;
80179;SDS011;69505;52.134;5.438;2024-01-27T14:16:15;11.68;;;4.68;;
80179;SDS011;69505;52.134;5.438;2024-01-27T14:18:45;10.00;;;4.07;;
80179;SDS011;69505;52.134;5.438;2024-01-27T14:21:12;11.40;;;4.63;;
80179;SDS011;69505;52.134;5.438;2024-01-27T14:23:39;10.88;;;4.65;;
80179;SDS011;69505;52.134;5.438;2024-01-27T14:26:06;11.95;;;4.43;;
80179;SDS011;69505;52.134;5.438;2024-01-27T14:28:41;12.05;;;4.60;;
80179;SDS011;69505;52.134;5.438;2024-01-27T14:31:08;9.02;;;3.05;;
80179;SDS011;69505;52.134;5.438;2024-01-27T14:33:38;13.27;;;4.68;;
80179;SDS011;69505;52.134;5.438;2024-01-27T14:36:04;9.13;;;4.30;;
80179;SDS011;69505;52.134;5.438;2024-01-27T14:38:32;13.65;;;4.35;;
80179;SDS011;69505;52.134;5.438;2024-01-27T14:40:58;10.65;;;3.88;;
80179;SDS011;69505;52.134;5.438;2024-01-27T14:43:25;11.15;;;4.07;;
80179;SDS011;69505;52.134;5.438;2024-01-27T14:45:53;12.20;;;3.90;;